DWD Radarbild

   
[Quelle: ADDS]
METAR
EDLP 280920Z 21018KT 5000 RA FEW017 BKN021 BKN029 05/03 Q0990 =
EDLP 280500Z 2806/2906 20013KT 9999 BKN035 TEMPO 2806/2816 24015G25KT SHRA BKN020TCU PROB30 TEMPO 2806/2812 27025G40KT TSGS BKN015CB BECMG 2808/2811 24020G35KT PROB30 TEMPO 2814/2817 27025G40KT 4500 SHSNRA BKN015CB BECMG 2816/2818 24015G25KT TEMPO 2817/2903 4500 SHSNRA BKN013CB
TAF
EDLP 280500Z 2806/2906 20013KT 9999 BKN035 TEMPO 2806/2816 24015G25KT SHRA BKN020TCU PROB30 TEMPO 2806/2812 27025G40KT TSGS BKN015CB BECMG 2808/2811 24020G35KT PROB30 TEMPO 2814/2817 27025G40KT 4500 SHSNRA BKN015CB BECMG 2816/2818 24015G25KT TEMPO 2817/2903 4500 SHSNRA BKN013CB =
   
   

Meine WettercamWettercam aus Bielefeld Senne - Blickrichtung Süd-Ost

   
Moon phase
Phase:
Zunehmend

Mondphase:
11%

Alter:
3 Tage

Entfernung:
251,565 Km

Zeit:
10:55:24

Datum:
28-01-2020

   
<<  Jan 2020  >>
 Mo  Di  Mi  Do  Fr  Sa  So 
    1  2  3  4  5
  6  7  8  9101112
131415161719
20212223242526
2728293031